sensor_id;sensor_type;location;lat;lon;timestamp;pressure;altitude;pressure_sealevel;temperature;humidity
15880;BME280;61999;51.514;14.614;2023-07-02T00:00:31;98882.06;;;10.11;100.00
15880;BME280;61999;51.514;14.614;2023-07-02T00:03:00;98886.03;;;9.97;100.00
15880;BME280;61999;51.514;14.614;2023-07-02T00:05:28;98881.09;;;9.85;100.00
15880;BME280;61999;51.514;14.614;2023-07-02T00:07:57;98882.31;;;9.90;100.00
15880;BME280;61999;51.514;14.614;2023-07-02T00:10:25;98888.88;;;9.39;100.00
15880;BME280;61999;51.514;14.614;2023-07-02T00:12:53;98877.16;;;9.24;100.00
15880;BME280;61999;51.514;14.614;2023-07-02T00:15:21;98879.91;;;9.32;100.00
15880;BME280;61999;51.514;14.614;2023-07-02T00:17:49;98872.13;;;9.40;100.00
15880;BME280;61999;51.514;14.614;2023-07-02T00:20:17;98878.53;;;9.28;100.00
15880;BME280;61999;51.514;14.614;2023-07-02T00:22:46;98878.56;;;9.18;100.00
15880;BME280;61999;51.514;14.614;2023-07-02T00:25:15;98875.75;;;9.29;100.00
15880;BME280;61999;51.514;14.614;2023-07-02T00:27:43;98877.94;;;9.44;100.00
15880;BME280;61999;51.514;14.614;2023-07-02T00:30:12;98878.34;;;9.49;100.00
15880;BME280;61999;51.514;14.614;2023-07-02T00:32:40;98874.41;;;9.16;100.00
15880;BME280;61999;51.514;14.614;2023-07-02T00:35:08;98874.31;;;9.45;100.00
15880;BME280;61999;51.514;14.614;2023-07-02T00:37:36;98866.59;;;9.80;100.00
15880;BME280;61999;51.514;14.614;2023-07-02T00:40:06;98868.66;;;9.77;100.00
15880;BME280;61999;51.514;14.614;2023-07-02T00:42:36;98875.41;;;9.52;100.00
15880;BME280;61999;51.514;14.614;2023-07-02T00:45:06;98870.94;;;9.72;100.00
15880;BME280;61999;51.514;14.614;2023-07-02T00:47:35;98880.09;;;9.48;100.00
15880;BME280;61999;51.514;14.614;2023-07-02T00:50:05;98864.06;;;9.89;100.00
15880;BME280;61999;51.514;14.614;2023-07-02T00:52:36;98869.78;;;10.20;100.00
15880;BME280;61999;51.514;14.614;2023-07-02T00:55:05;98866.28;;;9.46;100.00
15880;BME280;61999;51.514;14.614;2023-07-02T00:57:35;98865.78;;;9.33;100.00
15880;BME280;61999;51.514;14.614;2023-07-02T01:00:04;98865.25;;;9.29;100.00
15880;BME280;61999;51.514;14.614;2023-07-02T01:02:33;98861.50;;;9.32;100.00
15880;BME280;61999;51.514;14.614;2023-07-02T01:05:01;98860.00;;;9.20;100.00
15880;BME280;61999;51.514;14.614;2023-07-02T01:07:29;98855.38;;;9.78;100.00
15880;BME280;61999;51.514;14.614;2023-07-02T01:09:57;98874.25;;;9.27;100.00
15880;BME280;61999;51.514;14.614;2023-07-02T01:12:27;98863.50;;;9.48;100.00
15880;BME280;61999;51.514;14.614;2023-07-02T01:15:00;98859.94;;;9.39;100.00
15880;BME280;61999;51.514;14.614;2023-07-02T01:17:31;98858.22;;;9.57;100.00
15880;BME280;61999;51.514;14.614;2023-07-02T01:20:09;98854.44;;;9.23;100.00
15880;BME280;61999;51.514;14.614;2023-07-02T01:22:38;98853.25;;;9.54;100.00
15880;BME280;61999;51.514;14.614;2023-07-02T01:25:08;98857.38;;;9.67;100.00
15880;BME280;61999;51.514;14.614;2023-07-02T01:27:37;98851.91;;;9.41;100.00
15880;BME280;61999;51.514;14.614;2023-07-02T01:30:07;98848.25;;;9.51;100.00
15880;BME280;61999;51.514;14.614;2023-07-02T01:32:37;98846.78;;;9.39;100.00
15880;BME280;61999;51.514;14.614;2023-07-02T01:35:08;98843.88;;;9.42;100.00
15880;BME280;61999;51.514;14.614;2023-07-02T01:37:36;98845.56;;;9.98;100.00
15880;BME280;61999;51.514;14.614;2023-07-02T01:40:06;98852.50;;;9.72;100.00
15880;BME280;61999;51.514;14.614;2023-07-02T01:42:35;98853.94;;;10.30;100.00
15880;BME280;61999;51.514;14.614;2023-07-02T01:45:04;98849.19;;;10.33;100.00
15880;BME280;61999;51.514;14.614;2023-07-02T01:47:32;98849.75;;;9.91;100.00
15880;BME280;61999;51.514;14.614;2023-07-02T01:50:03;98850.44;;;9.66;100.00
15880;BME280;61999;51.514;14.614;2023-07-02T01:52:32;98843.97;;;10.06;100.00
15880;BME280;61999;51.514;14.614;2023-07-02T01:55:01;98852.09;;;9.67;100.00
15880;BME280;61999;51.514;14.614;2023-07-02T01:57:29;98864.53;;;9.74;100.00
15880;BME280;61999;51.514;14.614;2023-07-02T01:59:58;98861.66;;;9.95;100.00
15880;BME280;61999;51.514;14.614;2023-07-02T02:02:26;98865.13;;;9.58;100.00
15880;BME280;61999;51.514;14.614;2023-07-02T02:04:54;98867.88;;;9.57;100.00
15880;BME280;61999;51.514;14.614;2023-07-02T02:07:23;98857.72;;;9.99;100.00
15880;BME280;61999;51.514;14.614;2023-07-02T02:09:54;98863.28;;;9.96;100.00
15880;BME280;61999;51.514;14.614;2023-07-02T02:12:22;98868.66;;;10.05;100.00
15880;BME280;61999;51.514;14.614;2023-07-02T02:14:49;98871.66;;;10.73;100.00
15880;BME280;61999;51.514;14.614;2023-07-02T02:17:18;98874.06;;;11.10;100.00
15880;BME280;61999;51.514;14.614;2023-07-02T02:19:45;98862.69;;;10.84;100.00
15880;BME280;61999;51.514;14.614;2023-07-02T02:22:13;98860.66;;;10.60;100.00
15880;BME280;61999;51.514;14.614;2023-07-02T02:24:42;98867.06;;;9.94;100.00
15880;BME280;61999;51.514;14.614;2023-07-02T02:27:11;98868.94;;;9.84;100.00
15880;BME280;61999;51.514;14.614;2023-07-02T02:29:39;98863.88;;;10.18;100.00
15880;BME280;61999;51.514;14.614;2023-07-02T02:32:07;98870.88;;;10.27;100.00
15880;BME280;61999;51.514;14.614;2023-07-02T02:34:35;98867.59;;;9.70;100.00
15880;BME280;61999;51.514;14.614;2023-07-02T02:37:03;98877.91;;;10.09;100.00
15880;BME280;61999;51.514;14.614;2023-07-02T02:39:31;98886.47;;;9.93;100.00
15880;BME280;61999;51.514;14.614;2023-07-02T02:41:59;98882.84;;;10.39;100.00
15880;BME280;61999;51.514;14.614;2023-07-02T02:44:28;98884.25;;;10.16;100.00
15880;BME280;61999;51.514;14.614;2023-07-02T02:46:59;98887.28;;;9.93;100.00
15880;BME280;61999;51.514;14.614;2023-07-02T02:49:27;98883.84;;;10.38;100.00
15880;BME280;61999;51.514;14.614;2023-07-02T02:51:55;98883.78;;;10.02;100.00
15880;BME280;61999;51.514;14.614;2023-07-02T02:54:23;98889.50;;;10.79;100.00
15880;BME280;61999;51.514;14.614;2023-07-02T02:56:51;98886.88;;;9.98;100.00
15880;BME280;61999;51.514;14.614;2023-07-02T02:59:19;98878.34;;;9.86;100.00
15880;BME280;61999;51.514;14.614;2023-07-02T03:01:48;98892.66;;;10.01;100.00
15880;BME280;61999;51.514;14.614;2023-07-02T03:04:18;98884.03;;;10.09;100.00
15880;BME280;61999;51.514;14.614;2023-07-02T03:06:52;98890.44;;;10.42;100.00
15880;BME280;61999;51.514;14.614;2023-07-02T03:09:20;98896.72;;;10.59;100.00
15880;BME280;61999;51.514;14.614;2023-07-02T03:11:48;98894.91;;;10.60;100.00
15880;BME280;61999;51.514;14.614;2023-07-02T03:14:16;98899.03;;;9.99;100.00
15880;BME280;61999;51.514;14.614;2023-07-02T03:16:44;98895.38;;;10.10;100.00
15880;BME280;61999;51.514;14.614;2023-07-02T03:19:14;98897.06;;;10.29;100.00
15880;BME280;61999;51.514;14.614;2023-07-02T03:21:42;98899.47;;;10.22;100.00
15880;BME280;61999;51.514;14.614;2023-07-02T03:24:10;98893.28;;;11.21;100.00
15880;BME280;61999;51.514;14.614;2023-07-02T03:26:40;98894.97;;;11.04;100.00
15880;BME280;61999;51.514;14.614;2023-07-02T03:29:08;98908.56;;;11.17;100.00
15880;BME280;61999;51.514;14.614;2023-07-02T03:31:37;98900.91;;;11.50;100.00
15880;BME280;61999;51.514;14.614;2023-07-02T03:34:08;98907.03;;;10.88;100.00
15880;BME280;61999;51.514;14.614;2023-07-02T03:36:38;98912.91;;;10.82;100.00
15880;BME280;61999;51.514;14.614;2023-07-02T03:39:06;98905.44;;;11.40;100.00
15880;BME280;61999;51.514;14.614;2023-07-02T03:41:36;98930.63;;;10.72;100.00
15880;BME280;61999;51.514;14.614;2023-07-02T03:44:04;98921.28;;;10.78;100.00
15880;BME280;61999;51.514;14.614;2023-07-02T03:46:32;98923.75;;;11.67;100.00
15880;BME280;61999;51.514;14.614;2023-07-02T03:49:00;98925.59;;;10.61;100.00
15880;BME280;61999;51.514;14.614;2023-07-02T03:51:29;98936.41;;;10.12;100.00
15880;BME280;61999;51.514;14.614;2023-07-02T03:53:59;98926.50;;;10.24;100.00
15880;BME280;61999;51.514;14.614;2023-07-02T03:56:27;98940.41;;;10.80;100.00
15880;BME280;61999;51.514;14.614;2023-07-02T03:58:55;98940.41;;;10.80;100.00
15880;BME280;61999;51.514;14.614;2023-07-02T04:01:23;98934.84;;;10.37;100.00
15880;BME280;61999;51.514;14.614;2023-07-02T04:03:53;98928.13;;;10.88;100.00
15880;BME280;61999;51.514;14.614;2023-07-02T04:06:21;98936.78;;;10.63;100.00
15880;BME280;61999;51.514;14.614;2023-07-02T04:08:50;98933.59;;;10.14;100.00
15880;BME280;61999;51.514;14.614;2023-07-02T04:11:19;98935.09;;;10.44;100.00
15880;BME280;61999;51.514;14.614;2023-07-02T04:13:47;98933.38;;;10.07;100.00
15880;BME280;61999;51.514;14.614;2023-07-02T04:16:15;98940.13;;;10.65;100.00
15880;BME280;61999;51.514;14.614;2023-07-02T04:18:43;98939.19;;;10.74;100.00
15880;BME280;61999;51.514;14.614;2023-07-02T04:21:11;98943.72;;;11.00;100.00
15880;BME280;61999;51.514;14.614;2023-07-02T04:23:39;98948.19;;;10.81;100.00
15880;BME280;61999;51.514;14.614;2023-07-02T04:26:07;98956.31;;;10.42;100.00
15880;BME280;61999;51.514;14.614;2023-07-02T04:28:36;98968.72;;;10.60;100.00
15880;BME280;61999;51.514;14.614;2023-07-02T04:31:04;98968.38;;;10.90;100.00
15880;BME280;61999;51.514;14.614;2023-07-02T04:33:32;98972.00;;;10.89;100.00
15880;BME280;61999;51.514;14.614;2023-07-02T04:36:03;98969.47;;;11.24;100.00
15880;BME280;61999;51.514;14.614;2023-07-02T04:38:31;98972.28;;;10.86;100.00
15880;BME280;61999;51.514;14.614;2023-07-02T04:40:59;98972.53;;;10.75;100.00
15880;BME280;61999;51.514;14.614;2023-07-02T04:43:28;98982.06;;;10.48;100.00
15880;BME280;61999;51.514;14.614;2023-07-02T04:45:58;98991.19;;;9.42;100.00
15880;BME280;61999;51.514;14.614;2023-07-02T04:48:26;98995.09;;;8.99;100.00
15880;BME280;61999;51.514;14.614;2023-07-02T04:50:54;98993.16;;;9.21;100.00
15880;BME280;61999;51.514;14.614;2023-07-02T04:53:22;98994.81;;;9.02;100.00
15880;BME280;61999;51.514;14.614;2023-07-02T04:55:50;99005.88;;;9.16;100.00
15880;BME280;61999;51.514;14.614;2023-07-02T04:58:18;99002.56;;;9.13;100.00
15880;BME280;61999;51.514;14.614;2023-07-02T05:00:46;98999.22;;;8.82;100.00
15880;BME280;61999;51.514;14.614;2023-07-02T05:03:15;99005.03;;;9.05;100.00
15880;BME280;61999;51.514;14.614;2023-07-02T05:05:43;99002.41;;;8.76;100.00
15880;BME280;61999;51.514;14.614;2023-07-02T05:08:11;99012.25;;;8.84;100.00
15880;BME280;61999;51.514;14.614;2023-07-02T05:10:39;99005.03;;;8.76;100.00
15880;BME280;61999;51.514;14.614;2023-07-02T05:13:07;99008.34;;;8.88;100.00
15880;BME280;61999;51.514;14.614;2023-07-02T05:15:35;99005.72;;;9.46;100.00
15880;BME280;61999;51.514;14.614;2023-07-02T05:18:03;99011.97;;;8.97;100.00
15880;BME280;61999;51.514;14.614;2023-07-02T05:20:34;99010.72;;;9.10;100.00
15880;BME280;61999;51.514;14.614;2023-07-02T05:23:02;99019.03;;;9.25;100.00
15880;BME280;61999;51.514;14.614;2023-07-02T05:25:30;99020.16;;;9.32;100.00
15880;BME280;61999;51.514;14.614;2023-07-02T05:27:59;99018.41;;;9.80;100.00
15880;BME280;61999;51.514;14.614;2023-07-02T05:30:27;99011.13;;;8.96;100.00
15880;BME280;61999;51.514;14.614;2023-07-02T05:32:55;99021.34;;;9.48;100.00
15880;BME280;61999;51.514;14.614;2023-07-02T05:35:23;99020.63;;;10.22;100.00
15880;BME280;61999;51.514;14.614;2023-07-02T05:37:52;99015.66;;;9.82;100.00
15880;BME280;61999;51.514;14.614;2023-07-02T05:40:20;99023.00;;;10.53;100.00
15880;BME280;61999;51.514;14.614;2023-07-02T05:42:48;99029.91;;;9.79;100.00
15880;BME280;61999;51.514;14.614;2023-07-02T05:45:16;99024.09;;;10.50;100.00
15880;BME280;61999;51.514;14.614;2023-07-02T05:47:44;99022.84;;;10.27;100.00
15880;BME280;61999;51.514;14.614;2023-07-02T05:50:13;99026.50;;;10.71;100.00
15880;BME280;61999;51.514;14.614;2023-07-02T05:52:41;99030.56;;;10.38;100.00
15880;BME280;61999;51.514;14.614;2023-07-02T05:55:11;99032.75;;;9.29;100.00
15880;BME280;61999;51.514;14.614;2023-07-02T05:57:39;99029.28;;;9.19;100.00
15880;BME280;61999;51.514;14.614;2023-07-02T06:00:08;99036.03;;;9.31;100.00
15880;BME280;61999;51.514;14.614;2023-07-02T06:02:36;99028.28;;;9.58;100.00
15880;BME280;61999;51.514;14.614;2023-07-02T06:05:05;99031.34;;;9.05;100.00
15880;BME280;61999;51.514;14.614;2023-07-02T06:07:33;99028.69;;;9.64;100.00
15880;BME280;61999;51.514;14.614;2023-07-02T06:10:02;99019.84;;;9.74;100.00
15880;BME280;61999;51.514;14.614;2023-07-02T06:12:32;99027.59;;;9.08;100.00
15880;BME280;61999;51.514;14.614;2023-07-02T06:15:00;99020.28;;;8.92;100.00
15880;BME280;61999;51.514;14.614;2023-07-02T06:17:28;99036.16;;;9.58;100.00
15880;BME280;61999;51.514;14.614;2023-07-02T06:19:57;99037.41;;;9.64;100.00
15880;BME280;61999;51.514;14.614;2023-07-02T06:22:25;99033.25;;;9.81;100.00
15880;BME280;61999;51.514;14.614;2023-07-02T06:24:53;99026.13;;;10.29;100.00
15880;BME280;61999;51.514;14.614;2023-07-02T06:27:21;99028.84;;;10.74;100.00
15880;BME280;61999;51.514;14.614;2023-07-02T06:29:51;99027.59;;;11.50;100.00
15880;BME280;61999;51.514;14.614;2023-07-02T06:32:19;99033.91;;;10.30;100.00
15880;BME280;61999;51.514;14.614;2023-07-02T06:34:47;99042.69;;;10.21;100.00
15880;BME280;61999;51.514;14.614;2023-07-02T06:37:15;99042.28;;;10.81;100.00
15880;BME280;61999;51.514;14.614;2023-07-02T06:39:43;99035.69;;;10.02;100.00
15880;BME280;61999;51.514;14.614;2023-07-02T06:42:11;99032.13;;;11.04;100.00
15880;BME280;61999;51.514;14.614;2023-07-02T06:44:40;99048.44;;;10.07;100.00
15880;BME280;61999;51.514;14.614;2023-07-02T06:47:09;99046.72;;;10.15;100.00
15880;BME280;61999;51.514;14.614;2023-07-02T06:49:37;99045.78;;;10.07;100.00
15880;BME280;61999;51.514;14.614;2023-07-02T06:52:06;99050.44;;;10.60;100.00
15880;BME280;61999;51.514;14.614;2023-07-02T06:54:33;99048.72;;;10.41;100.00
15880;BME280;61999;51.514;14.614;2023-07-02T06:57:02;99060.13;;;10.69;100.00
15880;BME280;61999;51.514;14.614;2023-07-02T06:59:30;99056.41;;;9.77;100.00
15880;BME280;61999;51.514;14.614;2023-07-02T07:01:58;99051.97;;;9.78;100.00
15880;BME280;61999;51.514;14.614;2023-07-02T07:04:27;99048.88;;;9.92;100.00
15880;BME280;61999;51.514;14.614;2023-07-02T07:06:55;99041.72;;;10.77;100.00
15880;BME280;61999;51.514;14.614;2023-07-02T07:09:24;99054.28;;;9.91;100.00
15880;BME280;61999;51.514;14.614;2023-07-02T07:11:52;99045.56;;;9.90;100.00
15880;BME280;61999;51.514;14.614;2023-07-02T07:14:20;99052.63;;;9.80;100.00
15880;BME280;61999;51.514;14.614;2023-07-02T07:16:48;99047.66;;;10.52;100.00
15880;BME280;61999;51.514;14.614;2023-07-02T07:19:17;99041.06;;;10.93;100.00
15880;BME280;61999;51.514;14.614;2023-07-02T07:21:46;99050.97;;;11.09;99.81
15880;BME280;61999;51.514;14.614;2023-07-02T07:24:14;99041.47;;;10.53;100.00
15880;BME280;61999;51.514;14.614;2023-07-02T07:26:42;99057.88;;;10.37;100.00
15880;BME280;61999;51.514;14.614;2023-07-02T07:29:10;99065.63;;;9.91;98.05
15880;BME280;61999;51.514;14.614;2023-07-02T07:31:38;99050.03;;;9.51;100.00
15880;BME280;61999;51.514;14.614;2023-07-02T07:34:06;99050.38;;;10.05;98.98
15880;BME280;61999;51.514;14.614;2023-07-02T07:36:34;99047.22;;;10.29;94.85
15880;BME280;61999;51.514;14.614;2023-07-02T07:39:03;99038.09;;;10.23;90.04
15880;BME280;61999;51.514;14.614;2023-07-02T07:41:31;99049.72;;;10.85;90.17
15880;BME280;61999;51.514;14.614;2023-07-02T07:43:59;99062.03;;;11.12;88.41
15880;BME280;61999;51.514;14.614;2023-07-02T07:46:28;99063.69;;;10.40;84.40
15880;BME280;61999;51.514;14.614;2023-07-02T07:48:56;99060.19;;;10.77;84.76
15880;BME280;61999;51.514;14.614;2023-07-02T07:51:24;99048.53;;;11.69;86.33
15880;BME280;61999;51.514;14.614;2023-07-02T07:53:52;99048.31;;;11.89;78.93
15880;BME280;61999;51.514;14.614;2023-07-02T07:56:21;99050.81;;;11.64;69.30
15880;BME280;61999;51.514;14.614;2023-07-02T07:58:49;99044.03;;;11.88;64.26
15880;BME280;61999;51.514;14.614;2023-07-02T08:01:17;99073.75;;;10.82;72.25
15880;BME280;61999;51.514;14.614;2023-07-02T08:03:45;99064.16;;;11.09;71.33
15880;BME280;61999;51.514;14.614;2023-07-02T08:06:13;99053.44;;;11.10;71.63
15880;BME280;61999;51.514;14.614;2023-07-02T08:08:41;99057.97;;;11.54;74.22
15880;BME280;61999;51.514;14.614;2023-07-02T08:11:09;99060.13;;;12.29;73.25
15880;BME280;61999;51.514;14.614;2023-07-02T08:13:38;99065.41;;;12.02;64.72
15880;BME280;61999;51.514;14.614;2023-07-02T08:16:06;99054.84;;;12.71;66.07
15880;BME280;61999;51.514;14.614;2023-07-02T08:18:36;99053.59;;;12.41;61.77
15880;BME280;61999;51.514;14.614;2023-07-02T08:21:04;99069.69;;;12.21;63.04
15880;BME280;61999;51.514;14.614;2023-07-02T08:23:33;99065.31;;;12.89;65.16
15880;BME280;61999;51.514;14.614;2023-07-02T08:26:01;99059.69;;;12.84;58.70
15880;BME280;61999;51.514;14.614;2023-07-02T08:28:29;99073.59;;;12.17;61.68
15880;BME280;61999;51.514;14.614;2023-07-02T08:30:59;99051.72;;;12.33;65.57
15880;BME280;61999;51.514;14.614;2023-07-02T08:33:27;99053.00;;;12.63;60.51
15880;BME280;61999;51.514;14.614;2023-07-02T08:35:55;99056.53;;;12.88;58.67
15880;BME280;61999;51.514;14.614;2023-07-02T08:38:24;99050.91;;;12.33;61.43
15880;BME280;61999;51.514;14.614;2023-07-02T08:40:52;99043.31;;;12.88;59.03
15880;BME280;61999;51.514;14.614;2023-07-02T08:43:21;99061.28;;;12.68;58.89
15880;BME280;61999;51.514;14.614;2023-07-02T08:45:49;99070.06;;;12.77;57.53
15880;BME280;61999;51.514;14.614;2023-07-02T08:48:19;99063.41;;;13.32;57.22
15880;BME280;61999;51.514;14.614;2023-07-02T08:50:49;99064.53;;;12.97;60.22
15880;BME280;61999;51.514;14.614;2023-07-02T08:53:17;99060.09;;;13.05;57.70
15880;BME280;61999;51.514;14.614;2023-07-02T08:55:45;99074.59;;;12.93;51.90
15880;BME280;61999;51.514;14.614;2023-07-02T08:58:14;99084.03;;;12.53;54.00
15880;BME280;61999;51.514;14.614;2023-07-02T09:01:04;99073.56;;;12.86;54.87
15880;BME280;61999;51.514;14.614;2023-07-02T09:03:35;99069.69;;;13.23;51.67
15880;BME280;61999;51.514;14.614;2023-07-02T09:06:05;99075.25;;;12.44;50.22
15880;BME280;61999;51.514;14.614;2023-07-02T09:08:34;99092.66;;;12.21;49.90
15880;BME280;61999;51.514;14.614;2023-07-02T09:11:07;99083.25;;;12.69;52.60
15880;BME280;61999;51.514;14.614;2023-07-02T09:13:46;99074.75;;;12.91;49.37
15880;BME280;61999;51.514;14.614;2023-07-02T09:16:25;99091.16;;;12.18;50.92
15880;BME280;61999;51.514;14.614;2023-07-02T09:19:02;99107.47;;;11.96;51.18
15880;BME280;61999;51.514;14.614;2023-07-02T09:21:43;99071.13;;;12.50;52.70
15880;BME280;61999;51.514;14.614;2023-07-02T09:24:14;99086.56;;;13.13;50.84
15880;BME280;61999;51.514;14.614;2023-07-02T09:26:43;99085.03;;;12.60;50.56
15880;BME280;61999;51.514;14.614;2023-07-02T09:29:12;99082.44;;;13.11;50.42
15880;BME280;61999;51.514;14.614;2023-07-02T09:31:45;99088.41;;;12.70;48.64
15880;BME280;61999;51.514;14.614;2023-07-02T09:34:30;99104.91;;;12.99;47.04
15880;BME280;61999;51.514;14.614;2023-07-02T09:37:00;99109.88;;;13.02;45.56
15880;BME280;61999;51.514;14.614;2023-07-02T09:39:31;99107.44;;;13.57;46.56
15880;BME280;61999;51.514;14.614;2023-07-02T09:42:06;99094.16;;;14.23;45.20
15880;BME280;61999;51.514;14.614;2023-07-02T09:44:35;99101.03;;;14.65;44.54
15880;BME280;61999;51.514;14.614;2023-07-02T09:47:05;99104.75;;;14.39;44.83
15880;BME280;61999;51.514;14.614;2023-07-02T09:49:37;99084.31;;;14.95;47.16
15880;BME280;61999;51.514;14.614;2023-07-02T09:52:08;99084.34;;;14.87;43.67
15880;BME280;61999;51.514;14.614;2023-07-02T09:54:37;99103.41;;;14.52;47.50
15880;BME280;61999;51.514;14.614;2023-07-02T09:57:06;99096.34;;;15.06;47.65
15880;BME280;61999;51.514;14.614;2023-07-02T09:59:35;99097.81;;;14.30;48.23
15880;BME280;61999;51.514;14.614;2023-07-02T10:02:03;99102.09;;;14.47;47.04
15880;BME280;61999;51.514;14.614;2023-07-02T10:04:42;99102.88;;;13.76;47.70
15880;BME280;61999;51.514;14.614;2023-07-02T10:07:11;99087.88;;;14.24;45.41
15880;BME280;61999;51.514;14.614;2023-07-02T10:09:43;99100.59;;;14.37;46.56
15880;BME280;61999;51.514;14.614;2023-07-02T10:12:19;99097.81;;;15.09;44.74
15880;BME280;61999;51.514;14.614;2023-07-02T10:14:50;99084.34;;;14.87;45.34
15880;BME280;61999;51.514;14.614;2023-07-02T10:17:27;99106.25;;;14.34;44.39
15880;BME280;61999;51.514;14.614;2023-07-02T10:20:01;99095.81;;;14.80;45.64
15880;BME280;61999;51.514;14.614;2023-07-02T10:22:42;99088.59;;;15.51;43.40
15880;BME280;61999;51.514;14.614;2023-07-02T10:25:10;99089.41;;;16.42;42.66
15880;BME280;61999;51.514;14.614;2023-07-02T10:27:40;99092.13;;;17.14;40.90
15880;BME280;61999;51.514;14.614;2023-07-02T10:30:10;99095.25;;;15.47;40.63
15880;BME280;61999;51.514;14.614;2023-07-02T10:32:38;99106.44;;;15.19;43.35
15880;BME280;61999;51.514;14.614;2023-07-02T10:35:18;99130.25;;;14.48;44.93
15880;BME280;61999;51.514;14.614;2023-07-02T10:37:46;99112.22;;;15.46;44.74
15880;BME280;61999;51.514;14.614;2023-07-02T10:40:14;99142.81;;;15.42;43.24
15880;BME280;61999;51.514;14.614;2023-07-02T10:42:47;99103.41;;;15.22;43.79
15880;BME280;61999;51.514;14.614;2023-07-02T10:45:16;99108.69;;;14.52;46.79
15880;BME280;61999;51.514;14.614;2023-07-02T10:47:45;99103.72;;;15.27;46.89
15880;BME280;61999;51.514;14.614;2023-07-02T10:50:19;99124.47;;;14.92;44.63
15880;BME280;61999;51.514;14.614;2023-07-02T10:52:49;99136.47;;;14.72;44.21
15880;BME280;61999;51.514;14.614;2023-07-02T10:55:18;99126.63;;;14.49;45.28
15880;BME280;61999;51.514;14.614;2023-07-02T10:57:47;99132.53;;;14.68;46.55
15880;BME280;61999;51.514;14.614;2023-07-02T11:00:18;99135.63;;;14.08;47.38
15880;BME280;61999;51.514;14.614;2023-07-02T11:02:47;99140.84;;;14.57;46.50
15880;BME280;61999;51.514;14.614;2023-07-02T11:05:15;99130.00;;;13.86;49.94
15880;BME280;61999;51.514;14.614;2023-07-02T11:07:44;99134.50;;;14.66;48.08
15880;BME280;61999;51.514;14.614;2023-07-02T11:10:18;99134.28;;;13.63;53.94
15880;BME280;61999;51.514;14.614;2023-07-02T11:12:47;99138.84;;;13.20;52.23
15880;BME280;61999;51.514;14.614;2023-07-02T11:15:16;99153.47;;;13.48;52.09
15880;BME280;61999;51.514;14.614;2023-07-02T11:17:45;99152.63;;;12.29;54.92
15880;BME280;61999;51.514;14.614;2023-07-02T11:20:14;99140.06;;;12.91;55.96
15880;BME280;61999;51.514;14.614;2023-07-02T11:22:44;99148.50;;;12.52;54.24
15880;BME280;61999;51.514;14.614;2023-07-02T11:25:15;99154.38;;;12.38;54.96
15880;BME280;61999;51.514;14.614;2023-07-02T11:27:44;99143.78;;;13.14;54.21
15880;BME280;61999;51.514;14.614;2023-07-02T11:30:13;99166.69;;;13.24;53.29
15880;BME280;61999;51.514;14.614;2023-07-02T11:32:49;99156.44;;;13.45;54.61
15880;BME280;61999;51.514;14.614;2023-07-02T11:35:18;99173.06;;;13.80;52.24
15880;BME280;61999;51.514;14.614;2023-07-02T11:37:48;99182.13;;;13.02;55.30
15880;BME280;61999;51.514;14.614;2023-07-02T11:40:18;99180.41;;;12.93;58.36
15880;BME280;61999;51.514;14.614;2023-07-02T11:42:46;99178.00;;;13.67;57.32
15880;BME280;61999;51.514;14.614;2023-07-02T11:45:14;99187.34;;;13.95;57.17
15880;BME280;61999;51.514;14.614;2023-07-02T11:47:42;99200.56;;;14.36;56.03
15880;BME280;61999;51.514;14.614;2023-07-02T11:50:11;99179.97;;;14.63;53.49
15880;BME280;61999;51.514;14.614;2023-07-02T11:52:48;99184.81;;;14.26;52.83
15880;BME280;61999;51.514;14.614;2023-07-02T11:55:16;99188.59;;;14.65;49.51
15880;BME280;61999;51.514;14.614;2023-07-02T11:57:44;99195.19;;;14.77;50.15
15880;BME280;61999;51.514;14.614;2023-07-02T12:00:15;99196.72;;;15.19;47.26
15880;BME280;61999;51.514;14.614;2023-07-02T12:02:43;99193.97;;;15.35;44.73
15880;BME280;61999;51.514;14.614;2023-07-02T12:05:11;99191.00;;;16.08;44.70
15880;BME280;61999;51.514;14.614;2023-07-02T12:07:39;99172.47;;;14.75;45.36
15880;BME280;61999;51.514;14.614;2023-07-02T12:10:09;99181.00;;;15.87;46.22
15880;BME280;61999;51.514;14.614;2023-07-02T12:12:37;99174.34;;;15.91;44.07
15880;BME280;61999;51.514;14.614;2023-07-02T12:15:06;99185.25;;;15.50;43.08
15880;BME280;61999;51.514;14.614;2023-07-02T12:17:34;99181.91;;;16.99;42.75
15880;BME280;61999;51.514;14.614;2023-07-02T12:20:03;99170.53;;;19.52;38.98
15880;BME280;61999;51.514;14.614;2023-07-02T12:22:31;99166.88;;;19.93;35.01
15880;BME280;61999;51.514;14.614;2023-07-02T12:24:59;99175.69;;;21.25;33.70
15880;BME280;61999;51.514;14.614;2023-07-02T12:27:29;99179.16;;;20.87;33.94
15880;BME280;61999;51.514;14.614;2023-07-02T12:29:57;99178.53;;;18.90;37.14
15880;BME280;61999;51.514;14.614;2023-07-02T12:32:25;99165.09;;;20.98;34.03
15880;BME280;61999;51.514;14.614;2023-07-02T12:34:53;99177.88;;;20.96;33.17
15880;BME280;61999;51.514;14.614;2023-07-02T12:37:21;99164.25;;;21.49;30.46
15880;BME280;61999;51.514;14.614;2023-07-02T12:39:49;99153.78;;;21.28;33.25
15880;BME280;61999;51.514;14.614;2023-07-02T12:42:18;99167.13;;;21.48;30.55
15880;BME280;61999;51.514;14.614;2023-07-02T12:44:47;99164.03;;;19.88;34.39
15880;BME280;61999;51.514;14.614;2023-07-02T12:47:15;99167.91;;;20.45;35.24
15880;BME280;61999;51.514;14.614;2023-07-02T12:49:43;99169.72;;;19.58;35.40
15880;BME280;61999;51.514;14.614;2023-07-02T12:52:11;99154.19;;;21.70;32.28
15880;BME280;61999;51.514;14.614;2023-07-02T12:54:39;99149.34;;;23.09;28.67
15880;BME280;61999;51.514;14.614;2023-07-02T12:57:07;99149.97;;;24.30;27.13